createdAt,value
2023-04-22T00:01:30.560Z,4.9
2023-04-22T00:04:32.552Z,4.6
2023-04-22T00:07:34.447Z,5.3
2023-04-22T00:10:36.402Z,4.4
2023-04-22T00:13:38.379Z,4.8
2023-04-22T00:16:40.526Z,4.8
2023-04-22T00:19:42.350Z,4.1
2023-04-22T00:22:44.336Z,4.5
2023-04-22T00:25:46.235Z,4.8
2023-04-22T00:28:48.206Z,4.2
2023-04-22T00:31:50.375Z,4.8
2023-04-22T00:34:52.129Z,4.9
2023-04-22T00:37:54.094Z,4.4
2023-04-22T00:40:56.036Z,4
2023-04-22T00:43:58.000Z,3.9
2023-04-22T00:47:00.012Z,4
2023-04-22T00:50:01.891Z,3.8
2023-04-22T00:53:03.869Z,3.9
2023-04-22T00:56:05.802Z,4.7
2023-04-22T00:59:07.773Z,4.8
2023-04-22T01:02:09.824Z,4.3
2023-04-22T01:05:11.704Z,4.9
2023-04-22T01:08:13.685Z,4.8
2023-04-22T01:11:15.667Z,4.4
2023-04-22T01:14:17.617Z,4.1
2023-04-22T01:17:19.634Z,4.9
2023-04-22T01:20:21.531Z,4.2
2023-04-22T01:23:23.459Z,4.3
2023-04-22T01:26:25.409Z,3.9
2023-04-22T01:29:27.398Z,4.1
2023-04-22T01:32:29.504Z,4.1
2023-04-22T01:35:31.337Z,3.8
2023-04-22T01:38:33.324Z,3.8
2023-04-22T01:41:35.284Z,3.8
2023-04-22T01:44:37.224Z,4
2023-04-22T01:47:39.231Z,3.9
2023-04-22T01:50:41.245Z,3.8
2023-04-22T01:53:43.100Z,4.1
2023-04-22T01:56:45.063Z,3.9
2023-04-22T01:59:47.015Z,4.5
2023-04-22T02:02:49.186Z,4.4
2023-04-22T02:05:50.998Z,4
2023-04-22T02:08:52.971Z,3.8
2023-04-22T02:11:54.923Z,4
2023-04-22T02:14:56.893Z,4.4
2023-04-22T02:17:58.835Z,4.8
2023-04-22T02:21:00.802Z,5
2023-04-22T02:24:02.762Z,3.7
2023-04-22T02:27:04.726Z,3.9
2023-04-22T02:30:06.678Z,3.7
2023-04-22T02:33:08.702Z,4.4
2023-04-22T02:36:10.603Z,4.1
2023-04-22T02:39:12.571Z,4
2023-04-22T02:42:14.510Z,3.6
2023-04-22T02:45:16.463Z,3.8
2023-04-22T02:48:18.450Z,5
2023-04-22T02:51:20.392Z,4.3
2023-04-22T02:54:22.348Z,4.8
2023-04-22T02:57:24.311Z,4.5
2023-04-22T03:00:26.275Z,3.9
2023-04-22T03:03:28.328Z,3.4
2023-04-22T03:06:30.459Z,3.7
2023-04-22T03:09:32.142Z,3.3
2023-04-22T03:12:34.117Z,3.4
2023-04-22T03:15:36.088Z,3.2
2023-04-22T03:18:38.072Z,3.6
2023-04-22T03:21:40.028Z,3.4
2023-04-22T03:24:42.006Z,3.4
2023-04-22T03:27:43.974Z,3.7
2023-04-22T03:30:45.918Z,3.4
2023-04-22T03:33:47.877Z,3.3
2023-04-22T03:36:49.868Z,3.3
2023-04-22T03:39:51.823Z,3.7
2023-04-22T03:42:53.771Z,3.3
2023-04-22T03:45:55.781Z,3.3
2023-04-22T03:48:57.676Z,3.7
2023-04-22T03:51:59.653Z,3.6
2023-04-22T03:55:01.610Z,3.4
2023-04-22T03:58:03.562Z,3.6
2023-04-22T04:01:05.547Z,3.7
2023-04-22T04:04:07.687Z,3.3
2023-04-22T04:07:09.517Z,3.5
2023-04-22T04:10:11.502Z,3.8
2023-04-22T04:13:13.436Z,3.3
2023-04-22T04:16:15.488Z,3.3
2023-04-22T04:19:17.392Z,3.5
2023-04-22T04:22:19.371Z,3.5
2023-04-22T04:25:21.400Z,3.7
2023-04-22T04:28:23.313Z,2.9
2023-04-22T04:31:25.305Z,2.8
2023-04-22T04:34:27.241Z,3.6
2023-04-22T04:37:29.282Z,3.6
2023-04-22T04:40:31.227Z,3.8
2023-04-22T04:43:33.193Z,3.8
2023-04-22T04:46:35.206Z,3.6
2023-04-22T04:49:37.114Z,3.6
2023-04-22T04:52:39.064Z,3.5
2023-04-22T04:55:41.263Z,3.4
2023-04-22T04:58:42.990Z,4.5
2023-04-22T05:01:45.025Z,4.7
2023-04-22T05:04:47.019Z,4
2023-04-22T05:07:48.978Z,3.7
2023-04-22T05:10:50.988Z,4.1
2023-04-22T05:13:52.938Z,3.9
2023-04-22T05:16:54.928Z,3.6
2023-04-22T05:19:56.894Z,3.6
2023-04-22T05:22:58.822Z,3.6
2023-04-22T05:26:00.793Z,3.6
2023-04-22T05:29:02.754Z,3.7
2023-04-22T05:32:04.775Z,3.7
2023-04-22T05:35:06.675Z,3.6
2023-04-22T05:38:08.654Z,3.6
2023-04-22T05:41:10.664Z,3.2
2023-04-22T05:44:12.618Z,3.2
2023-04-22T05:47:14.597Z,3.8
2023-04-22T05:50:16.573Z,3.9
2023-04-22T05:53:18.542Z,3.9
2023-04-22T05:56:20.504Z,4.2
2023-04-22T05:59:22.467Z,4.5
2023-04-22T06:02:24.506Z,4.5
2023-04-22T06:05:26.588Z,4.8
2023-04-22T06:08:28.352Z,4.3
2023-04-22T06:11:30.374Z,4
2023-04-22T06:14:32.301Z,3.3
2023-04-22T06:17:34.319Z,3.9
2023-04-22T06:20:36.235Z,3.8
2023-04-22T06:23:38.203Z,4.5
2023-04-22T06:26:40.165Z,4.6
2023-04-22T06:29:42.130Z,3.5
2023-04-22T06:32:44.084Z,3.9
2023-04-22T06:35:46.027Z,4.5
2023-04-22T06:38:47.963Z,3.8
2023-04-22T06:41:49.947Z,4.1
2023-04-22T06:44:51.886Z,4.2
2023-04-22T06:47:53.948Z,3.6
2023-04-22T06:50:55.812Z,3.4
2023-04-22T06:53:57.753Z,3.1
2023-04-22T06:56:59.769Z,3
2023-04-22T07:00:01.711Z,3.4
2023-04-22T07:03:03.790Z,3.8
2023-04-22T07:06:05.671Z,3.5
2023-04-22T07:09:07.648Z,3.8
2023-04-22T07:12:09.594Z,2.9
2023-04-22T07:15:11.611Z,3.4
2023-04-22T07:18:13.544Z,2.9
2023-04-22T07:21:15.508Z,3
2023-04-22T07:24:17.472Z,2.6
2023-04-22T07:27:19.501Z,2.4
2023-04-22T07:30:21.386Z,2.9
2023-04-22T07:33:23.404Z,2.5
2023-04-22T07:36:25.398Z,2.6
2023-04-22T07:39:27.340Z,2.6
2023-04-22T07:42:29.330Z,3
2023-04-22T07:45:31.621Z,3
2023-04-22T07:48:33.483Z,2.8
2023-04-22T07:51:35.483Z,2.8
2023-04-22T07:54:37.430Z,2.8
2023-04-22T07:57:39.424Z,3.3
2023-04-22T08:00:41.498Z,3
2023-04-22T08:03:43.498Z,3.1
2023-04-22T08:06:45.376Z,2.3
2023-04-22T08:09:47.347Z,2.9
2023-04-22T08:12:49.321Z,2.6
2023-04-22T08:15:51.299Z,3.1
2023-04-22T08:18:53.268Z,2.5
2023-04-22T08:21:55.204Z,3.1
2023-04-22T08:24:57.178Z,2.5
2023-04-22T08:27:59.206Z,2.5
2023-04-22T08:31:01.273Z,2.6
2023-04-22T08:34:03.249Z,2.5
2023-04-22T08:37:05.182Z,2
2023-04-22T08:40:07.231Z,2.4
2023-04-22T08:43:09.407Z,2.3
2023-04-22T08:46:11.417Z,2.2
2023-04-22T08:49:13.723Z,2.3
2023-04-22T08:52:15.770Z,2.4
2023-04-22T08:55:17.736Z,2.3
2023-04-22T08:58:19.711Z,2.1
2023-04-22T09:01:21.728Z,2.2
2023-04-22T09:04:23.778Z,2.2
2023-04-22T09:07:25.689Z,2.2
2023-04-22T09:10:27.637Z,1.7
2023-04-22T09:13:29.639Z,2.1
2023-04-22T09:16:31.866Z,1.5
2023-04-22T09:19:33.744Z,1.8
2023-04-22T09:22:35.784Z,1.8
2023-04-22T09:25:37.772Z,1.4
2023-04-22T09:28:39.893Z,1.7
2023-04-22T09:31:42.230Z,1.6
2023-04-22T09:34:44.062Z,1.6
2023-04-22T09:37:49.446Z,1.5
2023-04-22T09:40:48.027Z,1.6
2023-04-22T09:43:50.072Z,1.6
2023-04-22T09:46:52.102Z,1.2
2023-04-22T09:49:54.073Z,1.4
2023-04-22T09:52:56.267Z,1.5
2023-04-22T09:55:58.072Z,1.4
2023-04-22T09:59:00.031Z,1.8
2023-04-22T10:02:02.116Z,1.5
2023-04-22T10:05:04.114Z,1.6
2023-04-22T10:08:06.204Z,1.5
2023-04-22T10:11:08.213Z,1.5
2023-04-22T10:14:10.162Z,1.6
2023-04-22T10:17:12.332Z,1.5
2023-04-22T10:20:14.099Z,1.8
2023-04-22T10:23:16.084Z,1.4
2023-04-22T10:26:18.003Z,1.5
2023-04-22T10:29:19.996Z,1.3
2023-04-22T10:32:21.978Z,1.7
2023-04-22T10:35:23.983Z,1.5
2023-04-22T10:38:25.890Z,1.4
2023-04-22T10:41:27.850Z,1.4
2023-04-22T10:44:29.802Z,1.7
2023-04-22T10:47:31.850Z,1.5
2023-04-22T10:50:33.820Z,1.8
2023-04-22T10:53:35.800Z,1.4
2023-04-22T10:56:40.888Z,1.5
2023-04-22T10:59:39.916Z,1.6
2023-04-22T11:02:41.786Z,1.5
2023-04-22T11:05:44.034Z,1.3
2023-04-22T11:08:45.620Z,1.5
2023-04-22T11:11:47.612Z,1.4
2023-04-22T11:14:49.562Z,1.5
2023-04-22T11:17:51.593Z,1.3
2023-04-22T11:20:53.562Z,1.5
2023-04-22T11:23:55.475Z,1.5
2023-04-22T11:26:57.471Z,1.3
2023-04-22T11:29:59.394Z,1.2
2023-04-22T11:33:01.407Z,1.3
2023-04-22T11:36:03.352Z,1.3
2023-04-22T11:39:05.292Z,1.1
2023-04-22T11:42:07.273Z,1.4
2023-04-22T11:45:09.228Z,1.2
2023-04-22T11:48:11.195Z,1.2
2023-04-22T11:51:13.149Z,1.3
2023-04-22T11:54:15.145Z,1.5
2023-04-22T11:57:17.087Z,1.3
2023-04-22T12:00:19.050Z,1.1
2023-04-22T12:03:21.106Z,1
2023-04-22T12:06:23.003Z,1.3
2023-04-22T12:09:24.953Z,1.2
2023-04-22T12:12:26.925Z,1.1
2023-04-22T12:15:28.868Z,0.9
2023-04-22T12:18:30.853Z,1.2
2023-04-22T12:21:32.832Z,1.2
2023-04-22T12:24:34.779Z,1.3
2023-04-22T12:27:36.881Z,1.3
2023-04-22T12:30:38.813Z,1.1
2023-04-22T12:33:40.809Z,1.2
2023-04-22T12:36:42.789Z,1.4
2023-04-22T12:39:44.759Z,1.2
2023-04-22T12:42:46.708Z,1.2
2023-04-22T12:45:48.676Z,1.3
2023-04-22T12:48:50.646Z,1.2
2023-04-22T12:51:52.587Z,1.4
2023-04-22T12:54:54.572Z,1.3
2023-04-22T12:57:56.516Z,1.2
2023-04-22T13:00:58.523Z,1.2
2023-04-22T13:04:00.688Z,1.2
2023-04-22T13:07:02.452Z,1.3
2023-04-22T13:10:04.451Z,1.2
2023-04-22T13:13:17.423Z,1.1
2023-04-22T13:16:08.448Z,0.9
2023-04-22T13:19:10.378Z,1.3
2023-04-22T13:22:12.540Z,1.2
2023-04-22T13:25:14.341Z,1.4
2023-04-22T13:28:16.281Z,1.3
2023-04-22T13:31:18.262Z,1.3
2023-04-22T13:34:20.217Z,1.2
2023-04-22T13:37:22.208Z,1.4
2023-04-22T13:40:24.193Z,1.5
2023-04-22T13:43:26.116Z,1.5
2023-04-22T13:46:29.718Z,1.4
2023-04-22T13:49:30.040Z,1.4
2023-04-22T13:52:32.011Z,2.2
2023-04-22T13:55:34.012Z,1.5
2023-04-22T13:58:35.958Z,1.4
2023-04-22T14:01:37.999Z,1.4
2023-04-22T14:04:40.051Z,1.3
2023-04-22T14:07:42.030Z,1.4
2023-04-22T14:10:44.037Z,1.6
2023-04-22T14:13:45.968Z,1.5
2023-04-22T14:16:47.951Z,1.5
2023-04-22T14:19:49.936Z,1.9
2023-04-22T14:22:51.866Z,1.6
2023-04-22T14:25:53.842Z,1.2
2023-04-22T14:28:55.822Z,1.7
2023-04-22T14:31:57.781Z,1.2
2023-04-22T14:34:59.760Z,1.8
2023-04-22T14:38:01.722Z,1.5
2023-04-22T14:41:03.705Z,1.4
2023-04-22T14:44:05.648Z,1.4
2023-04-22T14:47:07.651Z,1
2023-04-22T14:50:09.619Z,1.4
2023-04-22T14:53:11.590Z,1.3
2023-04-22T14:56:13.555Z,1.3
2023-04-22T14:59:15.502Z,1.1
2023-04-22T15:02:17.525Z,1.1
2023-04-22T15:05:19.501Z,1
2023-04-22T15:08:21.589Z,1.1
2023-04-22T15:11:23.395Z,1.2
2023-04-22T15:14:25.359Z,1
2023-04-22T15:17:27.410Z,1.2
2023-04-22T15:20:29.323Z,1.4
2023-04-22T15:23:31.268Z,1.2
2023-04-22T15:26:33.239Z,1.1
2023-04-22T15:29:35.207Z,1.1
2023-04-22T15:32:37.206Z,1.2
2023-04-22T15:35:39.171Z,1.2
2023-04-22T15:38:41.135Z,1.2
2023-04-22T15:41:43.083Z,1.2
2023-04-22T15:44:45.059Z,1.2
2023-04-22T15:47:47.131Z,1.2
2023-04-22T15:50:49.006Z,1.3
2023-04-22T15:53:50.998Z,1.1
2023-04-22T15:56:52.953Z,2.2
2023-04-22T16:00:03.123Z,1.6
2023-04-22T16:02:56.976Z,1.5
2023-04-22T16:05:58.831Z,1.3
2023-04-22T16:09:00.799Z,1.2
2023-04-22T16:12:02.846Z,1.8
2023-04-22T16:15:04.789Z,1.2
2023-04-22T16:18:06.803Z,1.3
2023-04-22T16:21:08.733Z,1.7
2023-04-22T16:24:10.672Z,1.6
2023-04-22T16:27:12.686Z,1.6
2023-04-22T16:30:16.168Z,1.2
2023-04-22T16:33:16.599Z,1.5
2023-04-22T16:36:18.650Z,1.7
2023-04-22T16:39:20.520Z,1.7
2023-04-22T16:42:22.528Z,1.8
2023-04-22T16:45:24.504Z,1.6
2023-04-22T16:48:26.514Z,1.5
2023-04-22T16:51:28.494Z,1.4
2023-04-22T16:54:30.427Z,1.5
2023-04-22T16:57:32.400Z,1.5
2023-04-22T17:00:34.378Z,1.6
2023-04-22T17:03:36.526Z,1.7
2023-04-22T17:06:39.745Z,1.4
2023-04-22T17:09:40.522Z,1.5
2023-04-22T17:12:42.249Z,1.4
2023-04-22T17:15:44.255Z,1.7
2023-04-22T17:18:46.240Z,1.9
2023-04-22T17:21:48.210Z,1.6
2023-04-22T17:24:50.163Z,1.5
2023-04-22T17:27:52.125Z,1.9
2023-04-22T17:30:54.133Z,1.6
2023-04-22T17:33:56.056Z,1.8
2023-04-22T17:36:58.023Z,2
2023-04-22T17:39:59.965Z,1.6
2023-04-22T17:43:01.920Z,1.8
2023-04-22T17:46:03.907Z,1.4
2023-04-22T17:49:05.846Z,1.6
2023-04-22T17:52:07.948Z,1.7
2023-04-22T17:55:09.763Z,1.9
2023-04-22T17:58:11.721Z,1.8
2023-04-22T18:01:13.730Z,1.5
2023-04-22T18:04:15.792Z,1.6
2023-04-22T18:07:17.662Z,1.7
2023-04-22T18:10:19.610Z,1.5
2023-04-22T18:13:21.559Z,1.2
2023-04-22T18:16:23.568Z,1.6
2023-04-22T18:19:25.474Z,1.5
2023-04-22T18:22:27.453Z,1.4
2023-04-22T18:25:29.424Z,1.6
2023-04-22T18:28:31.364Z,1.5
2023-04-22T18:31:33.346Z,1.4
2023-04-22T18:34:35.301Z,1.8
2023-04-22T18:37:37.282Z,1.5
2023-04-22T18:40:39.229Z,1.7
2023-04-22T18:43:41.197Z,1.3
2023-04-22T18:46:43.141Z,1.6
2023-04-22T18:49:45.104Z,1.5
2023-04-22T18:52:47.051Z,1.5
2023-04-22T18:55:49.006Z,1.5
2023-04-22T18:58:50.999Z,1.5
2023-04-22T19:01:53.026Z,1.7
2023-04-22T19:04:54.907Z,1.5
2023-04-22T19:07:56.859Z,1.8
2023-04-22T19:10:58.831Z,1.6
2023-04-22T19:14:00.777Z,1.5
2023-04-22T19:17:02.750Z,1.5
2023-04-22T19:20:04.746Z,1.9
2023-04-22T19:23:06.680Z,1.8
2023-04-22T19:26:08.651Z,1.7
2023-04-22T19:29:10.610Z,1.4
2023-04-22T19:32:12.762Z,1.8
2023-04-22T19:35:14.507Z,1.5
2023-04-22T19:38:16.506Z,1.7
2023-04-22T19:41:18.451Z,1.7
2023-04-22T19:44:20.404Z,1.8
2023-04-22T19:47:22.392Z,1.7
2023-04-22T19:50:24.295Z,2
2023-04-22T19:53:26.270Z,1.8
2023-04-22T19:56:28.235Z,2.1
2023-04-22T19:59:30.190Z,1.5
2023-04-22T20:02:32.206Z,1.9
2023-04-22T20:05:34.104Z,1.7
2023-04-22T20:08:36.062Z,1.9
2023-04-22T20:11:38.037Z,1.9
2023-04-22T20:14:39.996Z,1.6
2023-04-22T20:17:42.000Z,1.9
2023-04-22T20:20:43.933Z,2.1
2023-04-22T20:23:48.649Z,1.8
2023-04-22T20:26:50.679Z,2
2023-04-22T20:29:52.617Z,1.9
2023-04-22T20:32:54.563Z,1.7
2023-04-22T20:35:56.531Z,1.9
2023-04-22T20:38:58.485Z,1.8
2023-04-22T20:42:00.429Z,2
2023-04-22T20:45:02.399Z,1.9
2023-04-22T20:48:04.384Z,2.2
2023-04-22T20:51:06.302Z,2.1
2023-04-22T20:54:17.663Z,2
2023-04-22T20:57:10.219Z,1.9
2023-04-22T21:00:12.185Z,2
2023-04-22T21:03:14.250Z,2
2023-04-22T21:06:16.135Z,2.2
2023-04-22T21:09:18.335Z,2.2
2023-04-22T21:12:20.139Z,2.5
2023-04-22T21:15:22.040Z,2.7
2023-04-22T21:18:24.033Z,2.8
2023-04-22T21:21:25.972Z,2.6
2023-04-22T21:24:27.952Z,2.8
2023-04-22T21:27:29.913Z,2.7
2023-04-22T21:30:31.842Z,2.7
2023-04-22T21:33:33.826Z,3.1
2023-04-22T21:36:35.750Z,2.6
2023-04-22T21:39:37.727Z,2.6
2023-04-22T21:42:39.662Z,2.7
2023-04-22T21:45:41.639Z,2.6
2023-04-22T21:48:43.607Z,2.6
2023-04-22T21:51:45.544Z,2.6
2023-04-22T21:54:47.500Z,2.9
2023-04-22T21:57:49.471Z,2.8
2023-04-22T22:00:51.448Z,3.5
2023-04-22T22:03:53.452Z,3.5
2023-04-22T22:06:55.350Z,2.8
2023-04-22T22:09:57.314Z,3.5
2023-04-22T22:12:59.314Z,3.1
2023-04-22T22:16:01.246Z,2.7
2023-04-22T22:19:03.208Z,3.4
2023-04-22T22:22:05.166Z,3
2023-04-22T22:25:07.157Z,2.9
2023-04-22T22:28:09.097Z,2.7
2023-04-22T22:31:11.088Z,3
2023-04-22T22:34:13.002Z,3
2023-04-22T22:37:14.979Z,3
2023-04-22T22:40:16.940Z,2.8
2023-04-22T22:43:18.899Z,3.1
2023-04-22T22:46:20.985Z,3.5
2023-04-22T22:49:22.824Z,3.2
2023-04-22T22:52:24.923Z,3.2
2023-04-22T22:55:26.748Z,2.8
2023-04-22T22:58:28.703Z,3.3
2023-04-22T23:01:30.687Z,2.9
2023-04-22T23:04:32.762Z,3.4
2023-04-22T23:07:34.598Z,3.5
2023-04-22T23:10:36.544Z,3.4
2023-04-22T23:13:38.493Z,3.1
2023-04-22T23:16:40.466Z,3.2
2023-04-22T23:19:42.436Z,3.7
2023-04-22T23:22:44.584Z,3.8
2023-04-22T23:25:46.352Z,3.3
2023-04-22T23:28:48.289Z,3
2023-04-22T23:31:50.257Z,2.9
2023-04-22T23:34:52.212Z,3.5
2023-04-22T23:37:54.159Z,3.1
2023-04-22T23:40:56.130Z,3.4
2023-04-22T23:43:58.072Z,3.5
2023-04-22T23:47:00.026Z,3.2
2023-04-22T23:50:01.998Z,3.7
2023-04-22T23:53:03.986Z,4.1
2023-04-22T23:56:05.941Z,4.1
2023-04-22T23:59:07.883Z,3.4
